Airfield :







YOU CAN JOIN US ON...

 
LOGIN :

Register | Disclaimer

   EN    FR    IT 

 









Legend :    VFR   Marginal VFR   IFR   Intensive IFR   Very Intensive IFR
Visi :
Ceiling :
>= 8 km
>= 3000ft
5 to 8 km
1000 to 3000 ft
1500m to 5 km
500 to 1000 ft
800 to 1500m
200 to 500 ft
< 800m
< 200 ft
Symbols :   Thunderstorms  Fog  Heavy snow  Heavy precipitations  Wind > 20 kt






- Airport Elevation : 141 ft
- IATA code : YQI


CYQI - Yarmouth

CURRENT METAR :
  • 170700Z 06004KT 1/4SM FG SKC 12/12 A3035 RMK FG6 SLP279

EXPIRED METARs :
  • 170642Z 00000KT 1/2SM FG SKC 13/13 A3035 RMK FG4 SLP279
  • 170635Z 11002KT 2SM BR SKC 13/13 A3035 RMK FG2 SLP279
  • 170600Z 05004KT 040V110 9SM FEW002 13/13 A3035 RMK SF1 SLP278
  • 170500Z 06003KT 15SM SKC 12/12 A3035 RMK SLP279

TAF AMD TAF CYQI
Valid from the 17 at 07:00 until the 17 at 18:00 UTC


170704Z 1707/1718 VRB03KT 21/2SM BR SCT002
TEMPO 1707/1709 1/4SM FG VV002
FM170900 VRB03KT 1SM BR BKN002
TEMPO 1709/1714 1/4SM -DZ FG VV001
FM171500 18008KT 1/4SM -DZ FG VV001 RMK NXT FCST BY 171200Z
CZQM FIR / North America



MET'MAP, your aeronautical weather chart ! - Copyright ORBIFLY December 2007 - Disclaimer

ORBIFLY MET'MAP TEAM :

Programming & Development : Alexandra Zaïnal
Concept & original design : Baudouin d'Aumeries
Assistance for programming : Marc-Olivier Méhu
Technical & hardware support : Manuel Goepfert

Contact : metmap@orbifly.com




SOURCES & CREDITS :

   NOAA